createdAt,value
2024-04-11T00:02:02.795Z,8.4
2024-04-11T00:04:50.361Z,9.7
2024-04-11T00:07:37.919Z,9.9
2024-04-11T00:10:25.277Z,13.4
2024-04-11T00:13:12.540Z,10.8
2024-04-11T00:15:59.954Z,12
2024-04-11T00:18:50.204Z,10.4
2024-04-11T00:21:38.056Z,11.9
2024-04-11T00:24:25.454Z,13.9
2024-04-11T00:27:13.053Z,10
2024-04-11T00:30:02.015Z,11.7
2024-04-11T00:32:51.472Z,9.3
2024-04-11T00:35:40.014Z,10.7
2024-04-11T00:38:28.254Z,10.5
2024-04-11T00:41:18.993Z,11.9
2024-04-11T00:44:07.169Z,9.6
2024-04-11T00:46:54.471Z,9.1
2024-04-11T00:49:43.005Z,11.5
2024-04-11T00:52:30.723Z,9
2024-04-11T00:55:19.600Z,9
2024-04-11T00:58:07.439Z,11.3
2024-04-11T01:00:56.928Z,10.5
2024-04-11T01:03:44.490Z,13.7
2024-04-11T01:06:32.359Z,12
2024-04-11T01:09:52.294Z,12.1
2024-04-11T01:12:40.692Z,11.8
2024-04-11T01:15:28.004Z,10
2024-04-11T01:18:15.531Z,10.4
2024-04-11T01:21:05.623Z,9.8
2024-04-11T01:23:53.752Z,10
2024-04-11T01:26:41.773Z,11.3
2024-04-11T01:29:29.484Z,9.1
2024-04-11T01:32:17.215Z,10.3
2024-04-11T01:35:04.608Z,10.6
2024-04-11T01:37:54.630Z,9.5
2024-04-11T01:40:44.600Z,7.5
2024-04-11T01:43:33.186Z,10
2024-04-11T01:46:20.706Z,13.4
2024-04-11T01:49:08.176Z,11.6
2024-04-11T01:51:55.523Z,11.1
2024-04-11T01:54:43.441Z,10.8
2024-04-11T01:57:30.754Z,10
2024-04-11T02:00:18.067Z,8.5
2024-04-11T02:03:05.526Z,9.3
2024-04-11T02:05:54.614Z,9.3
2024-04-11T02:08:49.538Z,8.9
2024-04-11T02:11:37.847Z,9.7
2024-04-11T02:14:26.762Z,9.9
2024-04-11T02:17:15.397Z,8.9
2024-04-11T02:20:03.002Z,8.5
2024-04-11T02:22:56.252Z,13.5
2024-04-11T02:25:43.970Z,9.9
2024-04-11T02:28:32.557Z,11.6
2024-04-11T02:31:19.936Z,11.5
2024-04-11T02:34:07.593Z,10.7
2024-04-11T02:36:55.348Z,9.7
2024-04-11T02:39:43.155Z,10.7
2024-04-11T02:42:30.577Z,11.9
2024-04-11T02:45:19.179Z,11.3
2024-04-11T02:48:07.781Z,11.7
2024-04-11T02:50:55.344Z,12.6
2024-04-11T02:53:43.231Z,11.9
2024-04-11T02:56:30.768Z,11.9
2024-04-11T02:59:18.221Z,12.8
2024-04-11T03:02:05.547Z,9.9
2024-04-11T03:04:54.416Z,13
2024-04-11T03:07:42.356Z,11
2024-04-11T03:10:29.642Z,10.5
2024-04-11T03:13:17.217Z,10.6
2024-04-11T03:16:05.456Z,9.5
2024-04-11T03:18:57.355Z,12.1
2024-04-11T03:21:45.156Z,10.7
2024-04-11T03:24:32.476Z,11.9
2024-04-11T03:27:20.155Z,11
2024-04-11T03:30:07.569Z,10.7
2024-04-11T03:32:56.141Z,14.5
2024-04-11T03:35:44.253Z,10.9
2024-04-11T03:38:39.579Z,10.6
2024-04-11T03:41:27.766Z,10.3
2024-04-11T03:44:15.328Z,10.5
2024-04-11T03:47:04.055Z,13.6
2024-04-11T03:49:54.000Z,11.2
2024-04-11T03:52:41.269Z,11.1
2024-04-11T03:55:28.534Z,13.2
2024-04-11T03:58:15.960Z,11.1
2024-04-11T04:01:03.336Z,10.9
2024-04-11T04:03:52.362Z,10.6
2024-04-11T04:06:46.846Z,9
2024-04-11T04:09:34.207Z,8.8
2024-04-11T04:12:22.189Z,10.4
2024-04-11T04:15:10.458Z,9.6
2024-04-11T04:17:58.005Z,13.1
2024-04-11T04:20:45.549Z,13
2024-04-11T04:23:40.078Z,18.6
2024-04-11T04:26:28.302Z,15.6
2024-04-11T04:29:16.363Z,11.6
2024-04-11T04:32:04.985Z,13.5
2024-04-11T04:34:54.226Z,15.3
2024-04-11T04:37:43.045Z,13.2
2024-04-11T04:40:30.854Z,12.4
2024-04-11T04:43:18.203Z,11.2
2024-04-11T04:46:05.963Z,11.8
2024-04-11T04:48:54.670Z,11.3
2024-04-11T04:51:43.972Z,12.2
2024-04-11T04:54:33.048Z,9.7
2024-04-11T04:57:20.409Z,10.2
2024-04-11T05:00:07.963Z,10.7
2024-04-11T05:02:59.181Z,9.9
2024-04-11T05:05:54.585Z,11.7
2024-04-11T05:08:42.193Z,11
2024-04-11T05:11:31.941Z,9.1
2024-04-11T05:14:19.413Z,9.2
2024-04-11T05:17:06.774Z,10.1
2024-04-11T05:19:54.382Z,9.3
2024-04-11T05:22:43.414Z,12.2
2024-04-11T05:25:32.500Z,19.3
2024-04-11T05:28:20.036Z,11.3
2024-04-11T05:31:11.500Z,9
2024-04-11T05:34:10.579Z,14.6
2024-04-11T05:37:02.389Z,13.4
2024-04-11T05:39:51.581Z,11.9
2024-04-11T05:42:43.454Z,9.5
2024-04-11T05:45:31.361Z,10.2
2024-04-11T05:48:19.843Z,12.2
2024-04-11T05:51:08.069Z,14.6
2024-04-11T05:53:56.492Z,14.6
2024-04-11T05:56:44.128Z,11.6
2024-04-11T05:59:31.445Z,11.7
2024-04-11T06:02:22.255Z,12.8
2024-04-11T06:05:10.481Z,13.6
2024-04-11T06:07:58.547Z,11.5
2024-04-11T06:10:45.869Z,13.4
2024-04-11T06:13:33.336Z,9.5
2024-04-11T06:16:21.803Z,11.1
2024-04-11T06:19:10.521Z,11.5
2024-04-11T06:21:57.776Z,8.9
2024-04-11T06:24:51.921Z,14.9
2024-04-11T06:27:40.726Z,8
2024-04-11T06:30:28.772Z,15.5
2024-04-11T06:33:21.220Z,10.2
2024-04-11T06:36:08.865Z,11.5
2024-04-11T06:38:57.177Z,10.2
2024-04-11T06:41:45.363Z,11.7
2024-04-11T06:44:34.910Z,9.6
2024-04-11T06:47:28.262Z,10
2024-04-11T06:50:19.922Z,11
2024-04-11T06:53:07.926Z,9.9
2024-04-11T06:55:55.478Z,9.7
2024-04-11T06:58:42.770Z,10.2
2024-04-11T07:01:31.427Z,8.8
2024-04-11T07:04:18.989Z,10.1
2024-04-11T07:07:07.704Z,10.5
2024-04-11T07:09:55.019Z,14.3
2024-04-11T07:12:43.874Z,9.1
2024-04-11T07:15:32.913Z,8.4
2024-04-11T07:18:28.486Z,9.2
2024-04-11T07:21:30.490Z,14
2024-04-11T07:24:20.334Z,9.8
2024-04-11T07:27:08.969Z,10
2024-04-11T07:30:03.108Z,8.4
2024-04-11T07:32:57.629Z,11
2024-04-11T07:35:48.014Z,9
2024-04-11T07:38:35.420Z,7.5
2024-04-11T07:41:23.030Z,7.3
2024-04-11T07:44:13.909Z,9
2024-04-11T07:47:12.356Z,12.3
2024-04-11T07:50:07.468Z,6
2024-04-11T07:52:57.137Z,8.2
2024-04-11T07:55:44.656Z,7.8
2024-04-11T07:58:32.221Z,6.5
2024-04-11T08:01:19.535Z,8.5
2024-04-11T08:04:16.445Z,7.2
2024-04-11T08:07:03.862Z,6.5
2024-04-11T08:09:51.309Z,8.4
2024-04-11T08:12:41.127Z,7.6
2024-04-11T08:15:28.500Z,5.6
2024-04-11T08:18:16.685Z,6.7
2024-04-11T08:21:04.096Z,6
2024-04-11T08:23:54.604Z,7.3
2024-04-11T08:26:45.881Z,6.3
2024-04-11T08:29:33.301Z,5.8
2024-04-11T08:32:20.750Z,7.7
2024-04-11T08:35:08.522Z,6.5
2024-04-11T08:37:56.003Z,6.6
2024-04-11T08:40:45.114Z,8.7
2024-04-11T08:43:35.344Z,7.3
2024-04-11T08:46:24.270Z,5.7
2024-04-11T08:49:11.772Z,6.8
2024-04-11T08:51:59.251Z,7.8
2024-04-11T08:54:51.265Z,9.4
2024-04-11T08:57:41.218Z,9
2024-04-11T09:00:28.895Z,8.1
2024-04-11T09:03:18.527Z,5.6
2024-04-11T09:06:07.921Z,4.9
2024-04-11T09:08:57.796Z,6.6
2024-04-11T09:11:52.749Z,7.7
2024-04-11T09:14:42.421Z,9.7
2024-04-11T09:17:30.005Z,5
2024-04-11T09:20:23.914Z,6.8
2024-04-11T09:23:11.316Z,8
2024-04-11T09:26:05.563Z,7.2
2024-04-11T09:28:53.015Z,6.4
2024-04-11T09:31:41.235Z,6.5
2024-04-11T09:34:28.640Z,7.9
2024-04-11T09:37:16.618Z,9.3
2024-04-11T09:40:09.187Z,8.6
2024-04-11T09:43:05.278Z,7.6
2024-04-11T09:45:53.728Z,6
2024-04-11T09:48:49.716Z,9.8
2024-04-11T09:51:38.435Z,8
2024-04-11T09:54:27.054Z,7.5
2024-04-11T09:57:14.911Z,4.9
2024-04-11T10:00:03.041Z,8.2
2024-04-11T10:03:08.332Z,7.4
2024-04-11T10:05:56.319Z,6.7
2024-04-11T10:08:47.122Z,10
2024-04-11T10:11:35.849Z,6.7
2024-04-11T10:14:23.748Z,4.8
2024-04-11T10:17:14.258Z,4.3
2024-04-11T10:20:03.338Z,6.9
2024-04-11T10:22:58.480Z,6.2
2024-04-11T10:25:48.757Z,7.9
2024-04-11T10:28:36.515Z,6.1
2024-04-11T10:31:26.878Z,9.3
2024-04-11T10:34:18.573Z,7.8
2024-04-11T10:37:11.203Z,8.5
2024-04-11T10:40:00.373Z,10.2
2024-04-11T10:42:56.123Z,9.5
2024-04-11T10:46:09.998Z,9.2
2024-04-11T10:48:58.618Z,7.1
2024-04-11T10:51:58.015Z,8.7
2024-04-11T10:54:45.500Z,5.2
2024-04-11T10:57:36.721Z,7.4
2024-04-11T11:00:26.816Z,5.7
2024-04-11T11:03:53.333Z,8.9
2024-04-11T11:06:43.931Z,11.8
2024-04-11T11:09:33.386Z,6.7
2024-04-11T11:12:21.082Z,7.6
2024-04-11T11:15:09.035Z,5.7
2024-04-11T11:17:58.908Z,4.8
2024-04-11T11:20:47.409Z,5.9
2024-04-11T11:23:36.709Z,5.2
2024-04-11T11:26:24.352Z,4.1
2024-04-11T11:29:21.424Z,5.5
2024-04-11T11:32:11.876Z,5.4
2024-04-11T11:35:04.548Z,5.8
2024-04-11T11:37:53.967Z,7.4
2024-04-11T11:40:41.783Z,5.9
2024-04-11T11:43:32.201Z,7.6
2024-04-11T11:46:29.636Z,5.2
2024-04-11T11:49:23.781Z,5.3
2024-04-11T11:52:11.123Z,4.9
2024-04-11T11:54:59.862Z,4.6
2024-04-11T11:57:49.320Z,5.8
2024-04-11T12:00:40.608Z,6.7
2024-04-11T12:03:39.468Z,3.5
2024-04-11T12:06:29.853Z,6.4
2024-04-11T12:09:19.027Z,5.4
2024-04-11T12:12:17.158Z,5
2024-04-11T12:15:09.254Z,7.3
2024-04-11T12:18:00.144Z,7.4
2024-04-11T12:20:47.740Z,6.5
2024-04-11T12:23:37.297Z,8.5
2024-04-11T12:26:28.559Z,7.5
2024-04-11T12:29:18.690Z,6.1
2024-04-11T12:32:06.035Z,9.9
2024-04-11T12:34:54.114Z,6.3
2024-04-11T12:37:41.785Z,6.3
2024-04-11T12:40:31.829Z,5.6
2024-04-11T12:43:19.412Z,4.1
2024-04-11T12:46:07.159Z,5.4
2024-04-11T12:48:55.361Z,4.9
2024-04-11T12:51:42.951Z,7.6
2024-04-11T12:54:33.179Z,3.5
2024-04-11T12:57:21.338Z,4.6
2024-04-11T13:00:14.222Z,4.1
2024-04-11T13:03:21.220Z,5.7
2024-04-11T13:06:20.484Z,5.3
2024-04-11T13:09:13.324Z,4.5
2024-04-11T13:12:04.389Z,8.1
2024-04-11T13:14:55.179Z,5.1
2024-04-11T13:17:43.593Z,3.6
2024-04-11T13:20:37.875Z,3.9
2024-04-11T13:23:25.700Z,3.7
2024-04-11T13:26:15.080Z,5.9
2024-04-11T13:29:02.500Z,5.2
2024-04-11T13:31:53.895Z,3.6
2024-04-11T13:34:43.570Z,6
2024-04-11T13:37:49.572Z,6.2
2024-04-11T13:40:44.888Z,5.6
2024-04-11T13:44:06.304Z,4.5
2024-04-11T13:47:02.249Z,3.8
2024-04-11T13:49:55.585Z,3.9
2024-04-11T13:52:43.170Z,5.2
2024-04-11T13:55:31.118Z,4.9
2024-04-11T13:58:18.807Z,4.9
2024-04-11T14:01:07.228Z,9.9
2024-04-11T14:04:09.087Z,5.1
2024-04-11T14:07:01.415Z,6.4
2024-04-11T14:09:53.409Z,4.6
2024-04-11T14:12:45.362Z,6.1
2024-04-11T14:15:32.707Z,3.8
2024-04-11T14:18:23.054Z,5.5
2024-04-11T14:21:14.739Z,4.7
2024-04-11T14:24:04.190Z,4.3
2024-04-11T14:27:01.475Z,4.1
2024-04-11T14:29:51.997Z,5.3
2024-04-11T14:32:40.082Z,4.8
2024-04-11T14:35:55.658Z,5.4
2024-04-11T14:39:15.078Z,6.7
2024-04-11T14:42:02.887Z,6.9
2024-04-11T14:44:51.709Z,4.5
2024-04-11T14:47:41.281Z,4.1
2024-04-11T14:50:28.740Z,4.3
2024-04-11T14:53:16.216Z,3.9
2024-04-11T14:56:08.078Z,6
2024-04-11T14:59:03.811Z,4.8
2024-04-11T15:01:51.463Z,5.6
2024-04-11T15:04:39.504Z,4.7
2024-04-11T15:07:27.981Z,4.8
2024-04-11T15:10:15.868Z,4.1
2024-04-11T15:13:03.332Z,4.6
2024-04-11T15:15:51.249Z,4.8
2024-04-11T15:18:44.999Z,5.6
2024-04-11T15:21:34.626Z,5
2024-04-11T15:24:22.424Z,4.1
2024-04-11T15:27:12.637Z,4.6
2024-04-11T15:30:00.304Z,3.3
2024-04-11T15:32:50.538Z,8.6
2024-04-11T15:35:41.849Z,6.4
2024-04-11T15:38:29.402Z,3.9
2024-04-11T15:41:24.302Z,4.1
2024-04-11T15:44:14.970Z,4.2
2024-04-11T15:47:03.300Z,5.5
2024-04-11T15:49:51.189Z,4.2
2024-04-11T15:52:42.882Z,6.9
2024-04-11T15:55:30.794Z,4.3
2024-04-11T15:58:36.351Z,6.2
2024-04-11T16:01:23.921Z,5.4
2024-04-11T16:04:14.010Z,3.9
2024-04-11T16:07:01.762Z,7.6
2024-04-11T16:09:49.311Z,5.7
2024-04-11T16:12:38.999Z,4.5
2024-04-11T16:15:26.550Z,4.5
2024-04-11T16:18:16.924Z,4.3
2024-04-11T16:21:10.893Z,4.5
2024-04-11T16:23:59.767Z,3.9
2024-04-11T16:26:47.762Z,4.4
2024-04-11T16:29:38.107Z,3.2
2024-04-11T16:32:25.724Z,4.1
2024-04-11T16:35:13.222Z,11
2024-04-11T16:38:00.675Z,4.7
2024-04-11T16:40:53.577Z,11.2
2024-04-11T16:43:41.698Z,5.3
2024-04-11T16:46:29.180Z,7.6
2024-04-11T16:49:23.060Z,4.4
2024-04-11T16:52:21.071Z,3.7
2024-04-11T16:55:10.471Z,5.6
2024-04-11T16:58:12.161Z,6
2024-04-11T17:01:10.229Z,5.4
2024-04-11T17:03:57.908Z,4.2
2024-04-11T17:06:50.832Z,6.6
2024-04-11T17:09:40.620Z,4.5
2024-04-11T17:12:29.370Z,6
2024-04-11T17:15:16.914Z,6.2
2024-04-11T17:18:09.262Z,5.9
2024-04-11T17:21:05.027Z,4.5
2024-04-11T17:24:03.799Z,4.7
2024-04-11T17:26:51.599Z,5.4
2024-04-11T17:29:43.173Z,4.9
2024-04-11T17:32:45.310Z,4.1
2024-04-11T17:35:32.839Z,3.7
2024-04-11T17:38:42.913Z,4.6
2024-04-11T17:41:45.078Z,4.8
2024-04-11T17:44:43.442Z,4.4
2024-04-11T17:47:47.572Z,6.4
2024-04-11T17:50:37.424Z,5.6
2024-04-11T17:53:25.399Z,6
2024-04-11T17:56:12.713Z,7.9
2024-04-11T17:59:00.725Z,7.4
2024-04-11T18:01:49.028Z,5.8
2024-04-11T18:04:36.432Z,5.1
2024-04-11T18:07:23.797Z,5.5
2024-04-11T18:10:11.326Z,10.5
2024-04-11T18:13:01.965Z,7.5
2024-04-11T18:15:50.686Z,7.1
2024-04-11T18:18:45.760Z,7
2024-04-11T18:21:33.131Z,6.6
2024-04-11T18:24:20.720Z,5.7
2024-04-11T18:27:12.151Z,7.7
2024-04-11T18:29:59.978Z,7.9
2024-04-11T18:32:50.016Z,7.1
2024-04-11T18:35:38.380Z,12
2024-04-11T18:38:28.586Z,11.7
2024-04-11T18:41:19.382Z,11.7
2024-04-11T18:44:31.567Z,10.6
2024-04-11T18:47:35.770Z,9
2024-04-11T18:50:25.166Z,7.2
2024-04-11T18:53:14.987Z,7.7
2024-04-11T18:56:02.956Z,6.9
2024-04-11T18:58:55.070Z,8.6
2024-04-11T19:01:51.823Z,8.5
2024-04-11T19:04:44.270Z,5.6
2024-04-11T19:07:32.106Z,10.1
2024-04-11T19:10:20.699Z,5.8
2024-04-11T19:13:12.188Z,5
2024-04-11T19:16:00.595Z,6.7
2024-04-11T19:18:50.995Z,5.6
2024-04-11T19:21:38.960Z,8.5
2024-04-11T19:24:26.790Z,9.2
2024-04-11T19:27:14.817Z,9.4
2024-04-11T19:30:06.993Z,6.8
2024-04-11T19:32:55.494Z,7.3
2024-04-11T19:35:44.594Z,5.7
2024-04-11T19:38:35.340Z,6
2024-04-11T19:44:13.100Z,5.5
2024-04-11T19:47:00.422Z,7.8
2024-04-11T19:49:49.857Z,8.1
2024-04-11T19:52:41.160Z,9.1
2024-04-11T19:55:29.751Z,7.2
2024-04-11T19:58:20.360Z,7.6
2024-04-11T20:01:09.455Z,10.6
2024-04-11T20:03:58.666Z,8.3
2024-04-11T20:06:46.016Z,9.3
2024-04-11T20:09:34.662Z,8.3
2024-04-11T20:12:23.733Z,12.3
2024-04-11T20:15:12.650Z,7
2024-04-11T20:18:18.316Z,6.8
2024-04-11T20:21:16.356Z,8.6
2024-04-11T20:24:09.350Z,6.9
2024-04-11T20:26:57.253Z,7.7
2024-04-11T20:29:44.739Z,6.4
2024-04-11T20:32:32.570Z,7.2
2024-04-11T20:35:20.759Z,7
2024-04-11T20:38:10.646Z,8.9
2024-04-11T20:41:01.405Z,10.6
2024-04-11T20:43:49.383Z,6.1
2024-04-11T20:46:50.221Z,6.9
2024-04-11T20:49:40.256Z,10.5
2024-04-11T21:10:55.604Z,9.8
2024-04-11T21:14:14.962Z,12.1
2024-04-11T21:17:34.101Z,8.2
2024-04-11T21:20:53.844Z,7.8
2024-04-11T21:24:13.926Z,8.9
2024-04-11T21:27:32.953Z,12.9
2024-04-11T21:30:51.995Z,7.7
2024-04-11T21:34:11.711Z,11.9
2024-04-11T21:37:01.743Z,11.2
2024-04-11T21:39:49.412Z,9.8
2024-04-11T21:42:36.804Z,7.1
2024-04-11T21:45:25.286Z,8.5
2024-04-11T21:48:13.100Z,7.4
2024-04-11T21:51:03.008Z,8
2024-04-11T21:53:53.851Z,8.2
2024-04-11T21:56:43.853Z,7.9
2024-04-11T21:59:36.310Z,7.7
2024-04-11T22:02:25.196Z,8.3
2024-04-11T22:05:12.524Z,7.2
2024-04-11T22:08:04.797Z,6.8
2024-04-11T22:10:52.871Z,8.6
2024-04-11T22:13:47.493Z,11
2024-04-11T22:16:39.160Z,7.2
2024-04-11T22:19:26.437Z,10.5
2024-04-11T22:22:17.240Z,6.9
2024-04-11T22:25:05.071Z,8.7
2024-04-11T22:27:59.666Z,7.8
2024-04-11T22:30:47.038Z,8.9
2024-04-11T22:33:51.756Z,8.8
2024-04-11T22:36:39.701Z,7.4
2024-04-11T22:39:35.225Z,6.8
2024-04-11T22:42:26.075Z,9
2024-04-11T22:45:19.273Z,8.5
2024-04-11T22:48:11.644Z,7.1
2024-04-11T22:51:07.092Z,8.2
2024-04-11T22:54:03.284Z,8
2024-04-11T22:56:51.411Z,9
2024-04-11T22:59:44.206Z,8.7
2024-04-11T23:02:31.716Z,9.7
2024-04-11T23:05:19.127Z,9.9
2024-04-11T23:08:07.185Z,10.3
2024-04-11T23:10:56.191Z,8.4
2024-04-11T23:13:45.482Z,9.7
2024-04-11T23:16:41.091Z,9.5
2024-04-11T23:19:30.890Z,7.4
2024-04-11T23:22:23.521Z,8.5
2024-04-11T23:25:11.707Z,8.8
2024-04-11T23:28:00.045Z,7.1
2024-04-11T23:30:50.737Z,8.7
2024-04-11T23:33:39.302Z,7.1
2024-04-11T23:36:27.141Z,10.3
2024-04-11T23:39:14.713Z,7.5
2024-04-11T23:42:01.981Z,7.2
2024-04-11T23:44:49.787Z,8.6
2024-04-11T23:47:40.091Z,8.3
2024-04-11T23:50:37.286Z,8.7
2024-04-11T23:53:24.695Z,10.1
2024-04-11T23:56:14.014Z,10.6
2024-04-11T23:59:01.321Z,9.8
